Portada
METAR-TAF:

METAR-TAF

Aeroports :

Kristianstad, Suècia

latitud: 55-55N, longitud: 014-05E, altitud: 23 m

Observació

L'informe es va fer fa 21 minuts, a les 11:20 UTC
Vent 9 kt del Sud-Est
Temperatura 21°C
Humitat 56%
Pressió 1013 hPa
Visibilitat 10 km o més
Escasses núvols a una alçada de 3200 ft

METAR: ESMK 051120Z 13009KT 9999 FEW032 21/12 Q1013

Hora: 13:41 (11:41 UTC)

Pronòstic

L'informe es va fer fa 35 minuts, a les 11:06 UTC
Pronòstic vàlid del 05 a les 12 UTC al 05 a les 16 UTC
Vent 8 kt del Sud-Est
Visibilitat 10 km o més
Escasses núvols a una alçada de 3000 ft

TAF: ESMK 051106Z 0512/0516 13008KT 9999 FEW030

Observacions i pronòstics meteorològics de més de 4000 aeroports (METAR i TAF).

Les estacions disponibles són els punts grocs i vermells al mapa.

Posi el ratolí al punt desitjat per veure el nom de l'estació.

Feu clic per veure les observacions i els pronòstics meteorològics.

Per canviar el mapa: feu clic els botons verds amb una creu de color negre per apropar; al botó verd amb un guió per allunyar la imatge; o en les fletxes verdes per a mapes adjacents.


METAR-TAF: